sensor_id;sensor_type;location;lat;lon;timestamp;pressure;altitude;pressure_sealevel;temperature;humidity
26083;BME280;13848;49.018;12.078;2023-07-29T00:02:14;97273.97;;;18.90;85.19
26083;BME280;13848;49.018;12.078;2023-07-29T00:04:41;97273.97;;;18.90;85.25
26083;BME280;13848;49.018;12.078;2023-07-29T00:07:07;97272.91;;;18.91;85.04
26083;BME280;13848;49.018;12.078;2023-07-29T00:09:33;97280.06;;;18.81;85.47
26083;BME280;13848;49.018;12.078;2023-07-29T00:11:59;97268.84;;;18.83;85.90
26083;BME280;13848;49.018;12.078;2023-07-29T00:14:25;97280.06;;;18.81;85.85
26083;BME280;13848;49.018;12.078;2023-07-29T00:16:51;97274.03;;;18.84;85.25
26083;BME280;13848;49.018;12.078;2023-07-29T00:19:17;97284.47;;;18.77;85.80
26083;BME280;13848;49.018;12.078;2023-07-29T00:21:44;97284.47;;;18.77;85.91
26083;BME280;13848;49.018;12.078;2023-07-29T00:24:10;97272.97;;;18.80;85.87
26083;BME280;13848;49.018;12.078;2023-07-29T00:26:36;97290.25;;;18.71;86.54
26083;BME280;13848;49.018;12.078;2023-07-29T00:29:02;97283.44;;;18.68;86.53
26083;BME280;13848;49.018;12.078;2023-07-29T00:31:28;97290.00;;;18.67;86.69
26083;BME280;13848;49.018;12.078;2023-07-29T00:33:53;97288.31;;;18.71;86.45
26083;BME280;13848;49.018;12.078;2023-07-29T00:36:19;97283.44;;;18.68;86.84
26083;BME280;13848;49.018;12.078;2023-07-29T00:38:47;97277.41;;;18.71;86.55
26083;BME280;13848;49.018;12.078;2023-07-29T00:41:13;97270.84;;;18.72;86.45
26083;BME280;13848;49.018;12.078;2023-07-29T00:43:40;97275.25;;;18.68;86.48
26083;BME280;13848;49.018;12.078;2023-07-29T00:46:07;97274.94;;;18.75;86.15
26083;BME280;13848;49.018;12.078;2023-07-29T00:48:34;97275.25;;;18.68;86.70
26083;BME280;13848;49.018;12.078;2023-07-29T00:51:00;97274.44;;;18.68;86.49
26083;BME280;13848;49.018;12.078;2023-07-29T00:53:26;97268.16;;;18.67;86.70
26083;BME280;13848;49.018;12.078;2023-07-29T00:55:53;97264.03;;;18.65;87.07
26083;BME280;13848;49.018;12.078;2023-07-29T00:58:19;97269.22;;;18.66;86.79
26083;BME280;13848;49.018;12.078;2023-07-29T01:00:45;97272.53;;;18.68;86.89
26083;BME280;13848;49.018;12.078;2023-07-29T01:03:11;97280.13;;;18.66;86.95
26083;BME280;13848;49.018;12.078;2023-07-29T01:05:44;97275.78;;;18.65;86.95
26083;BME280;13848;49.018;12.078;2023-07-29T01:08:21;97271.72;;;18.63;86.92
26083;BME280;13848;49.018;12.078;2023-07-29T01:10:58;97264.88;;;18.60;87.14
26083;BME280;13848;49.018;12.078;2023-07-29T01:13:33;97258.59;;;18.59;87.32
26083;BME280;13848;49.018;12.078;2023-07-29T01:16:06;97262.16;;;18.60;87.18
26083;BME280;13848;49.018;12.078;2023-07-29T01:18:38;97256.69;;;18.60;86.92
26083;BME280;13848;49.018;12.078;2023-07-29T01:21:07;97256.97;;;18.58;86.86
26083;BME280;13848;49.018;12.078;2023-07-29T01:23:35;97252.66;;;18.52;87.19
26083;BME280;13848;49.018;12.078;2023-07-29T01:26:02;97258.16;;;18.47;87.41
26083;BME280;13848;49.018;12.078;2023-07-29T01:28:28;97262.50;;;18.48;87.73
26083;BME280;13848;49.018;12.078;2023-07-29T01:30:58;97264.97;;;18.50;87.11
26083;BME280;13848;49.018;12.078;2023-07-29T01:33:30;97276.97;;;18.49;87.65
26083;BME280;13848;49.018;12.078;2023-07-29T01:36:02;97264.75;;;18.41;88.29
26083;BME280;13848;49.018;12.078;2023-07-29T01:38:31;97258.47;;;18.41;88.97
26083;BME280;13848;49.018;12.078;2023-07-29T01:41:00;97260.09;;;18.42;88.24
26083;BME280;13848;49.018;12.078;2023-07-29T01:43:26;97239.88;;;18.43;88.63
26083;BME280;13848;49.018;12.078;2023-07-29T01:45:53;97245.91;;;18.45;88.78
26083;BME280;13848;49.018;12.078;2023-07-29T01:48:18;97239.06;;;18.42;88.82
26083;BME280;13848;49.018;12.078;2023-07-29T01:50:44;97235.22;;;18.43;88.80
26083;BME280;13848;49.018;12.078;2023-07-29T01:53:10;97237.69;;;18.45;88.73
26083;BME280;13848;49.018;12.078;2023-07-29T01:55:36;97245.91;;;18.45;88.61
26083;BME280;13848;49.018;12.078;2023-07-29T01:58:03;97249.16;;;18.47;88.59
26083;BME280;13848;49.018;12.078;2023-07-29T02:00:29;97253.50;;;18.48;88.40
26083;BME280;13848;49.018;12.078;2023-07-29T02:02:55;97254.59;;;18.47;88.22
26083;BME280;13848;49.018;12.078;2023-07-29T02:05:21;97254.13;;;18.34;89.17
26083;BME280;13848;49.018;12.078;2023-07-29T02:07:47;97253.03;;;18.35;89.23
26083;BME280;13848;49.018;12.078;2023-07-29T02:10:13;97253.84;;;18.36;88.88
26083;BME280;13848;49.018;12.078;2023-07-29T02:12:39;97261.22;;;18.35;89.00
26083;BME280;13848;49.018;12.078;2023-07-29T02:15:08;97258.78;;;18.34;89.42
26083;BME280;13848;49.018;12.078;2023-07-29T02:17:34;97256.56;;;18.36;89.10
26083;BME280;13848;49.018;12.078;2023-07-29T02:19:59;97249.78;;;18.33;89.42
26083;BME280;13848;49.018;12.078;2023-07-29T02:22:25;97253.06;;;18.30;89.15
26083;BME280;13848;49.018;12.078;2023-07-29T02:24:51;97257.97;;;18.33;88.87
26083;BME280;13848;49.018;12.078;2023-07-29T02:27:17;97260.69;;;18.33;89.40
26083;BME280;13848;49.018;12.078;2023-07-29T02:29:43;97252.78;;;18.32;89.50
26083;BME280;13848;49.018;12.078;2023-07-29T02:32:10;97256.34;;;18.32;89.35
26083;BME280;13848;49.018;12.078;2023-07-29T02:34:36;97262.88;;;18.31;89.01
26083;BME280;13848;49.018;12.078;2023-07-29T02:37:02;97256.91;;;18.29;89.00
26083;BME280;13848;49.018;12.078;2023-07-29T02:39:28;97257.97;;;18.33;88.46
26083;BME280;13848;49.018;12.078;2023-07-29T02:41:56;97259.63;;;18.29;88.62
26083;BME280;13848;49.018;12.078;2023-07-29T02:44:22;97261.84;;;18.27;88.64
26083;BME280;13848;49.018;12.078;2023-07-29T02:46:47;97259.94;;;18.23;88.69
26083;BME280;13848;49.018;12.078;2023-07-29T02:49:15;97256.91;;;18.24;88.36
26083;BME280;13848;49.018;12.078;2023-07-29T02:51:41;97252.00;;;18.26;88.15
26083;BME280;13848;49.018;12.078;2023-07-29T02:54:06;97253.66;;;18.22;88.56
26083;BME280;13848;49.018;12.078;2023-07-29T02:56:32;97252.06;;;18.16;89.18
26083;BME280;13848;49.018;12.078;2023-07-29T02:58:58;97253.69;;;18.17;88.65
26083;BME280;13848;49.018;12.078;2023-07-29T03:01:24;97242.50;;;18.14;88.88
26083;BME280;13848;49.018;12.078;2023-07-29T03:03:50;97248.53;;;18.11;89.34
26083;BME280;13848;49.018;12.078;2023-07-29T03:06:18;97255.38;;;18.08;89.25
26083;BME280;13848;49.018;12.078;2023-07-29T03:08:44;97245.56;;;18.07;89.16
26083;BME280;13848;49.018;12.078;2023-07-29T03:11:12;97236.28;;;18.03;89.27
26083;BME280;13848;49.018;12.078;2023-07-29T03:13:38;97231.41;;;18.00;89.28
26083;BME280;13848;49.018;12.078;2023-07-29T03:16:07;97223.78;;;17.97;89.57
26083;BME280;13848;49.018;12.078;2023-07-29T03:18:33;97240.72;;;17.94;89.74
26083;BME280;13848;49.018;12.078;2023-07-29T03:20:59;97236.63;;;17.91;90.06
26083;BME280;13848;49.018;12.078;2023-07-29T03:23:27;97238.56;;;17.86;90.10
26083;BME280;13848;49.018;12.078;2023-07-29T03:25:54;97242.38;;;17.85;90.04
26083;BME280;13848;49.018;12.078;2023-07-29T03:28:20;97240.75;;;17.84;89.77
26083;BME280;13848;49.018;12.078;2023-07-29T03:30:46;97232.59;;;17.73;90.53
26083;BME280;13848;49.018;12.078;2023-07-29T03:33:12;97230.97;;;17.62;91.42
26083;BME280;13848;49.018;12.078;2023-07-29T03:35:38;97234.56;;;17.63;91.31
26083;BME280;13848;49.018;12.078;2023-07-29T03:38:04;97235.88;;;17.65;91.29
26083;BME280;13848;49.018;12.078;2023-07-29T03:40:31;97238.03;;;17.68;90.61
26083;BME280;13848;49.018;12.078;2023-07-29T03:42:57;97241.31;;;17.70;90.57
26083;BME280;13848;49.018;12.078;2023-07-29T03:45:23;97236.97;;;17.69;90.22
26083;BME280;13848;49.018;12.078;2023-07-29T03:47:49;97236.44;;;17.62;90.86
26083;BME280;13848;49.018;12.078;2023-07-29T03:50:15;97239.97;;;17.68;91.10
26083;BME280;13848;49.018;12.078;2023-07-29T03:52:41;97245.16;;;17.74;90.03
26083;BME280;13848;49.018;12.078;2023-07-29T03:55:07;97234.78;;;17.71;90.47
26083;BME280;13848;49.018;12.078;2023-07-29T03:57:35;97237.78;;;17.70;90.72
26083;BME280;13848;49.018;12.078;2023-07-29T04:00:01;97236.41;;;17.67;90.76
26083;BME280;13848;49.018;12.078;2023-07-29T04:02:27;97239.41;;;17.71;90.47
26083;BME280;13848;49.018;12.078;2023-07-29T04:04:53;97236.41;;;17.67;90.26
26083;BME280;13848;49.018;12.078;2023-07-29T04:07:19;97229.34;;;17.61;90.68
26083;BME280;13848;49.018;12.078;2023-07-29T04:09:44;97234.28;;;17.59;91.04
26083;BME280;13848;49.018;12.078;2023-07-29T04:12:11;97240.53;;;17.60;91.42
26083;BME280;13848;49.018;12.078;2023-07-29T04:14:38;97241.63;;;17.64;90.71
26083;BME280;13848;49.018;12.078;2023-07-29T04:17:04;97244.34;;;17.64;90.97
26083;BME280;13848;49.018;12.078;2023-07-29T04:19:30;97244.59;;;17.67;90.61
26083;BME280;13848;49.018;12.078;2023-07-29T04:21:56;97251.13;;;17.71;90.72
26083;BME280;13848;49.018;12.078;2023-07-29T04:24:22;97258.25;;;17.72;90.83
26083;BME280;13848;49.018;12.078;2023-07-29T04:26:48;97249.25;;;17.77;91.09
26083;BME280;13848;49.018;12.078;2023-07-29T04:29:14;97245.16;;;17.74;91.21
26083;BME280;13848;49.018;12.078;2023-07-29T04:31:41;97237.50;;;17.76;91.32
26083;BME280;13848;49.018;12.078;2023-07-29T04:34:07;97233.16;;;17.80;91.26
26083;BME280;13848;49.018;12.078;2023-07-29T04:36:33;97237.81;;;17.75;91.54
26083;BME280;13848;49.018;12.078;2023-07-29T04:38:59;97244.06;;;17.80;91.35
26083;BME280;13848;49.018;12.078;2023-07-29T04:41:25;97241.28;;;17.86;91.42
26083;BME280;13848;49.018;12.078;2023-07-29T04:43:51;97239.09;;;17.88;90.67
26083;BME280;13848;49.018;12.078;2023-07-29T04:46:17;97233.16;;;17.80;91.65
26083;BME280;13848;49.018;12.078;2023-07-29T04:48:44;97243.75;;;17.87;91.27
26083;BME280;13848;49.018;12.078;2023-07-29T04:51:10;97242.94;;;17.87;92.02
26083;BME280;13848;49.018;12.078;2023-07-29T04:53:36;97241.81;;;17.93;91.63
26083;BME280;13848;49.018;12.078;2023-07-29T04:56:02;97239.13;;;17.83;92.34
26083;BME280;13848;49.018;12.078;2023-07-29T04:58:27;97242.16;;;17.76;93.20
26083;BME280;13848;49.018;12.078;2023-07-29T05:00:53;97238.09;;;17.63;93.55
26083;BME280;13848;49.018;12.078;2023-07-29T05:03:19;97238.59;;;17.70;93.36
26083;BME280;13848;49.018;12.078;2023-07-29T05:05:46;97232.59;;;17.78;93.33
26083;BME280;13848;49.018;12.078;2023-07-29T05:08:12;97229.00;;;17.88;92.99
26083;BME280;13848;49.018;12.078;2023-07-29T05:10:38;97223.78;;;17.97;92.83
26083;BME280;13848;49.018;12.078;2023-07-29T05:13:04;97226.72;;;18.11;92.33
26083;BME280;13848;49.018;12.078;2023-07-29T05:15:30;97228.56;;;18.20;92.25
26083;BME280;13848;49.018;12.078;2023-07-29T05:17:56;97223.63;;;18.27;92.13
26083;BME280;13848;49.018;12.078;2023-07-29T05:20:22;97218.63;;;18.40;91.92
26083;BME280;13848;49.018;12.078;2023-07-29T05:22:49;97219.81;;;18.23;92.01
26083;BME280;13848;49.018;12.078;2023-07-29T05:25:16;97222.47;;;18.39;92.30
26083;BME280;13848;49.018;12.078;2023-07-29T05:27:41;97224.97;;;18.30;92.42
26083;BME280;13848;49.018;12.078;2023-07-29T05:30:08;97233.97;;;18.25;93.14
26083;BME280;13848;49.018;12.078;2023-07-29T05:32:34;97231.88;;;18.17;92.78
26083;BME280;13848;49.018;12.078;2023-07-29T05:35:00;97230.50;;;18.15;94.03
26083;BME280;13848;49.018;12.078;2023-07-29T05:37:26;97216.75;;;18.35;93.32
26083;BME280;13848;49.018;12.078;2023-07-29T05:39:53;97212.34;;;18.39;92.36
26083;BME280;13848;49.018;12.078;2023-07-29T05:42:19;97212.34;;;18.39;92.06
26083;BME280;13848;49.018;12.078;2023-07-29T05:44:45;97213.75;;;18.31;92.23
26083;BME280;13848;49.018;12.078;2023-07-29T05:47:11;97215.28;;;18.48;92.67
26083;BME280;13848;49.018;12.078;2023-07-29T05:49:36;97213.59;;;18.57;91.87
26083;BME280;13848;49.018;12.078;2023-07-29T05:52:03;97215.16;;;18.68;92.26
26083;BME280;13848;49.018;12.078;2023-07-29T05:54:29;97215.97;;;18.69;91.68
26083;BME280;13848;49.018;12.078;2023-07-29T05:56:56;97209.72;;;18.68;91.12
26083;BME280;13848;49.018;12.078;2023-07-29T05:59:22;97219.28;;;18.60;91.14
26083;BME280;13848;49.018;12.078;2023-07-29T06:01:48;97223.44;;;18.53;91.44
26083;BME280;13848;49.018;12.078;2023-07-29T06:04:14;97224.13;;;18.34;91.31
26083;BME280;13848;49.018;12.078;2023-07-29T06:06:39;97229.88;;;18.33;92.22
26083;BME280;13848;49.018;12.078;2023-07-29T06:09:05;97228.72;;;18.39;91.62
26083;BME280;13848;49.018;12.078;2023-07-29T06:11:31;97224.09;;;18.40;91.55
26083;BME280;13848;49.018;12.078;2023-07-29T06:13:58;97224.06;;;18.45;91.81
26083;BME280;13848;49.018;12.078;2023-07-29T06:16:24;97214.53;;;18.37;92.53
26083;BME280;13848;49.018;12.078;2023-07-29T06:18:50;97214.03;;;18.30;93.03
26083;BME280;13848;49.018;12.078;2023-07-29T06:21:16;97211.03;;;18.31;93.80
26083;BME280;13848;49.018;12.078;2023-07-29T06:23:42;97210.41;;;18.45;92.92
26083;BME280;13848;49.018;12.078;2023-07-29T06:26:08;97208.13;;;18.57;92.15
26083;BME280;13848;49.018;12.078;2023-07-29T06:28:34;97215.47;;;18.61;92.69
26083;BME280;13848;49.018;12.078;2023-07-29T06:31:01;97217.91;;;18.63;91.72
26083;BME280;13848;49.018;12.078;2023-07-29T06:33:27;97224.19;;;18.69;91.53
26083;BME280;13848;49.018;12.078;2023-07-29T06:35:53;97226.56;;;18.75;91.25
26083;BME280;13848;49.018;12.078;2023-07-29T06:38:19;97230.94;;;18.76;91.09
26083;BME280;13848;49.018;12.078;2023-07-29T06:40:45;97219.41;;;18.84;90.98
26083;BME280;13848;49.018;12.078;2023-07-29T06:43:11;97228.03;;;18.97;90.28
26083;BME280;13848;49.018;12.078;2023-07-29T06:45:37;97220.13;;;18.95;89.63
26083;BME280;13848;49.018;12.078;2023-07-29T06:48:04;97226.31;;;19.06;89.91
26083;BME280;13848;49.018;12.078;2023-07-29T06:50:30;97227.94;;;19.07;90.24
26083;BME280;13848;49.018;12.078;2023-07-29T06:52:56;97228.13;;;19.16;89.65
26083;BME280;13848;49.018;12.078;2023-07-29T06:55:22;97221.09;;;19.09;90.07
26083;BME280;13848;49.018;12.078;2023-07-29T06:57:48;97230.88;;;19.16;90.09
26083;BME280;13848;49.018;12.078;2023-07-29T07:00:14;97235.13;;;19.27;89.82
26083;BME280;13848;49.018;12.078;2023-07-29T07:02:40;97236.69;;;19.09;90.38
26083;BME280;13848;49.018;12.078;2023-07-29T07:05:08;97245.38;;;19.11;90.67
26083;BME280;13848;49.018;12.078;2023-07-29T07:07:34;97245.06;;;19.18;90.72
26083;BME280;13848;49.018;12.078;2023-07-29T07:10:00;97251.31;;;19.18;90.11
26083;BME280;13848;49.018;12.078;2023-07-29T07:12:26;97246.59;;;19.00;90.58
26083;BME280;13848;49.018;12.078;2023-07-29T07:14:52;97244.44;;;18.97;90.78
26083;BME280;13848;49.018;12.078;2023-07-29T07:17:17;97234.16;;;19.12;90.58
26083;BME280;13848;49.018;12.078;2023-07-29T07:19:43;97231.38;;;19.18;90.53
26083;BME280;13848;49.018;12.078;2023-07-29T07:22:11;97221.75;;;19.25;90.46
26083;BME280;13848;49.018;12.078;2023-07-29T07:24:37;97221.22;;;19.23;90.61
26083;BME280;13848;49.018;12.078;2023-07-29T07:27:03;97215.19;;;19.26;90.68
26083;BME280;13848;49.018;12.078;2023-07-29T07:29:29;97212.47;;;19.26;91.14
26083;BME280;13848;49.018;12.078;2023-07-29T07:31:56;97208.56;;;19.32;91.47
26083;BME280;13848;49.018;12.078;2023-07-29T07:34:22;97207.59;;;19.18;92.41
26083;BME280;13848;49.018;12.078;2023-07-29T07:36:48;97210.88;;;19.20;93.52
26083;BME280;13848;49.018;12.078;2023-07-29T07:39:16;97211.75;;;19.39;93.14
26083;BME280;13848;49.018;12.078;2023-07-29T07:41:42;97219.91;;;19.45;93.17
26083;BME280;13848;49.018;12.078;2023-07-29T07:44:08;97211.25;;;19.37;92.65
26083;BME280;13848;49.018;12.078;2023-07-29T07:46:34;97220.06;;;19.53;92.30
26083;BME280;13848;49.018;12.078;2023-07-29T07:48:59;97223.34;;;19.55;92.07
26083;BME280;13848;49.018;12.078;2023-07-29T07:51:25;97224.50;;;19.49;92.36
26083;BME280;13848;49.018;12.078;2023-07-29T07:53:51;97224.69;;;19.58;92.21
26083;BME280;13848;49.018;12.078;2023-07-29T07:56:19;97229.91;;;19.83;91.91
26083;BME280;13848;49.018;12.078;2023-07-29T07:58:44;97219.84;;;19.98;90.99
26083;BME280;13848;49.018;12.078;2023-07-29T08:01:10;97234.50;;;20.07;90.93
26083;BME280;13848;49.018;12.078;2023-07-29T08:03:36;97241.22;;;19.96;90.13
26083;BME280;13848;49.018;12.078;2023-07-29T08:06:02;97237.00;;;19.84;90.52
26083;BME280;13848;49.018;12.078;2023-07-29T08:08:28;97251.03;;;19.78;89.15
26083;BME280;13848;49.018;12.078;2023-07-29T08:10:56;97259.56;;;19.71;88.21
26083;BME280;13848;49.018;12.078;2023-07-29T08:13:24;97292.28;;;19.81;88.47
26083;BME280;13848;49.018;12.078;2023-07-29T08:15:51;97338.84;;;19.76;88.76
26083;BME280;13848;49.018;12.078;2023-07-29T08:18:17;97351.59;;;19.57;90.24
26083;BME280;13848;49.018;12.078;2023-07-29T08:20:51;97384.53;;;19.41;91.01
26083;BME280;13848;49.018;12.078;2023-07-29T08:23:17;97336.09;;;19.13;91.49
26083;BME280;13848;49.018;12.078;2023-07-29T08:25:43;97314.06;;;18.99;92.21
26083;BME280;13848;49.018;12.078;2023-07-29T08:28:09;97292.22;;;18.99;93.32
26083;BME280;13848;49.018;12.078;2023-07-29T08:30:36;97273.31;;;19.08;93.36
26083;BME280;13848;49.018;12.078;2023-07-29T08:33:02;97261.81;;;19.06;92.23
26083;BME280;13848;49.018;12.078;2023-07-29T08:35:28;97244.47;;;18.92;92.32
26083;BME280;13848;49.018;12.078;2023-07-29T08:37:54;97257.00;;;18.98;91.74
26083;BME280;13848;49.018;12.078;2023-07-29T08:40:26;97242.78;;;18.96;91.61
26083;BME280;13848;49.018;12.078;2023-07-29T08:42:54;97238.47;;;18.90;92.30
26083;BME280;13848;49.018;12.078;2023-07-29T08:45:21;97241.75;;;18.92;92.22
26083;BME280;13848;49.018;12.078;2023-07-29T08:47:50;97247.28;;;18.81;92.03
26083;BME280;13848;49.018;12.078;2023-07-29T08:50:20;97249.56;;;18.64;91.91
26083;BME280;13848;49.018;12.078;2023-07-29T08:52:48;97242.47;;;18.68;91.99
26083;BME280;13848;49.018;12.078;2023-07-29T08:55:15;97203.66;;;18.71;92.40
26083;BME280;13848;49.018;12.078;2023-07-29T08:57:41;97239.09;;;18.81;92.01
26083;BME280;13848;49.018;12.078;2023-07-29T09:00:08;97219.84;;;18.97;91.53
26083;BME280;13848;49.018;12.078;2023-07-29T09:02:34;97215.97;;;19.03;91.25
26083;BME280;13848;49.018;12.078;2023-07-29T09:05:02;97226.31;;;19.06;91.55
26083;BME280;13848;49.018;12.078;2023-07-29T09:07:28;97224.69;;;19.05;90.97
26083;BME280;13848;49.018;12.078;2023-07-29T09:09:55;97225.03;;;18.98;90.70
26083;BME280;13848;49.018;12.078;2023-07-29T09:12:20;97225.84;;;18.99;90.73
26083;BME280;13848;49.018;12.078;2023-07-29T09:14:46;97217.81;;;19.07;91.03
26083;BME280;13848;49.018;12.078;2023-07-29T09:17:14;97213.56;;;19.25;91.26
26083;BME280;13848;49.018;12.078;2023-07-29T09:19:40;97219.91;;;19.45;91.52
26083;BME280;13848;49.018;12.078;2023-07-29T09:22:17;97212.66;;;19.59;91.52
26083;BME280;13848;49.018;12.078;2023-07-29T09:24:43;97217.56;;;19.62;91.03
26083;BME280;13848;49.018;12.078;2023-07-29T09:27:23;97212.59;;;19.64;91.83
26083;BME280;13848;49.018;12.078;2023-07-29T09:29:49;97209.28;;;19.67;91.73
26083;BME280;13848;49.018;12.078;2023-07-29T09:32:18;97215.94;;;19.61;92.10
26083;BME280;13848;49.018;12.078;2023-07-29T09:34:44;97214.16;;;19.70;92.50
26083;BME280;13848;49.018;12.078;2023-07-29T09:37:15;97213.41;;;19.64;91.12
26083;BME280;13848;49.018;12.078;2023-07-29T09:39:44;97213.72;;;19.63;92.16
26083;BME280;13848;49.018;12.078;2023-07-29T09:42:11;97225.09;;;19.70;91.81
26083;BME280;13848;49.018;12.078;2023-07-29T09:44:37;97220.13;;;19.77;89.65
26083;BME280;13848;49.018;12.078;2023-07-29T09:47:04;97219.19;;;19.63;88.12
26083;BME280;13848;49.018;12.078;2023-07-29T09:49:34;97222.91;;;19.72;87.94
26083;BME280;13848;49.018;12.078;2023-07-29T09:52:00;97221.84;;;19.92;86.41
26083;BME280;13848;49.018;12.078;2023-07-29T09:54:27;97218.53;;;19.95;86.15
26083;BME280;13848;49.018;12.078;2023-07-29T09:56:55;97215.88;;;20.09;85.66
26083;BME280;13848;49.018;12.078;2023-07-29T09:59:23;97224.06;;;20.09;85.37
26083;BME280;13848;49.018;12.078;2023-07-29T10:01:50;97231.84;;;20.20;85.00
26083;BME280;13848;49.018;12.078;2023-07-29T10:04:17;97255.31;;;20.08;84.95
26083;BME280;13848;49.018;12.078;2023-07-29T10:06:43;97265.66;;;20.11;85.50
26083;BME280;13848;49.018;12.078;2023-07-29T10:09:11;97278.06;;;20.03;85.79
26083;BME280;13848;49.018;12.078;2023-07-29T10:11:39;97262.56;;;19.93;85.76
26083;BME280;13848;49.018;12.078;2023-07-29T10:14:06;97248.63;;;19.71;87.19
26083;BME280;13848;49.018;12.078;2023-07-29T10:16:34;97251.06;;;19.73;86.95
26083;BME280;13848;49.018;12.078;2023-07-29T10:19:00;97243.09;;;19.76;86.43
26083;BME280;13848;49.018;12.078;2023-07-29T10:21:27;97236.53;;;19.77;86.79
26083;BME280;13848;49.018;12.078;2023-07-29T10:23:53;97235.59;;;19.63;88.02
26083;BME280;13848;49.018;12.078;2023-07-29T10:26:25;97239.53;;;19.76;87.70
26083;BME280;13848;49.018;12.078;2023-07-29T10:28:55;97239.81;;;19.50;89.14
26083;BME280;13848;49.018;12.078;2023-07-29T10:31:25;97239.50;;;19.52;89.25
26083;BME280;13848;49.018;12.078;2023-07-29T10:33:51;97246.22;;;19.64;89.18
26083;BME280;13848;49.018;12.078;2023-07-29T10:36:17;97245.13;;;19.65;89.55
26083;BME280;13848;49.018;12.078;2023-07-29T10:38:43;97250.22;;;19.77;89.77
26083;BME280;13848;49.018;12.078;2023-07-29T10:41:09;97245.00;;;20.00;89.92
26083;BME280;13848;49.018;12.078;2023-07-29T10:43:36;97242.63;;;20.12;89.96
26083;BME280;13848;49.018;12.078;2023-07-29T10:46:16;97234.59;;;20.20;90.11
26083;BME280;13848;49.018;12.078;2023-07-29T10:48:43;97216.84;;;20.37;88.34
26083;BME280;13848;49.018;12.078;2023-07-29T10:51:23;97215.13;;;20.22;88.38
26083;BME280;13848;49.018;12.078;2023-07-29T10:53:52;97209.34;;;20.05;88.61
26083;BME280;13848;49.018;12.078;2023-07-29T10:56:25;97219.59;;;20.18;89.14
26083;BME280;13848;49.018;12.078;2023-07-29T10:58:51;97224.56;;;20.54;89.39
26083;BME280;13848;49.018;12.078;2023-07-29T11:01:28;97218.84;;;20.69;88.11
26083;BME280;13848;49.018;12.078;2023-07-29T11:04:22;97208.78;;;21.30;89.60
26083;BME280;13848;49.018;12.078;2023-07-29T11:07:20;97209.72;;;21.52;86.10
26083;BME280;13848;49.018;12.078;2023-07-29T11:09:53;97205.78;;;21.59;85.61
26083;BME280;13848;49.018;12.078;2023-07-29T11:12:41;97210.53;;;21.67;82.66
26083;BME280;13848;49.018;12.078;2023-07-29T11:15:19;97204.22;;;21.39;81.18
26083;BME280;13848;49.018;12.078;2023-07-29T11:17:48;97210.63;;;21.48;80.75
26083;BME280;13848;49.018;12.078;2023-07-29T11:20:15;97208.09;;;21.79;81.64
26083;BME280;13848;49.018;12.078;2023-07-29T11:22:41;97217.84;;;21.99;80.62
26083;BME280;13848;49.018;12.078;2023-07-29T11:25:09;97215.00;;;21.90;81.09
26083;BME280;13848;49.018;12.078;2023-07-29T11:27:36;97212.97;;;21.68;80.31
26083;BME280;13848;49.018;12.078;2023-07-29T11:30:04;97206.06;;;21.85;80.60
26083;BME280;13848;49.018;12.078;2023-07-29T11:32:30;97203.41;;;22.21;81.96
26083;BME280;13848;49.018;12.078;2023-07-29T11:35:01;97205.91;;;22.90;82.45
26083;BME280;13848;49.018;12.078;2023-07-29T11:37:27;97201.84;;;22.87;78.54
26083;BME280;13848;49.018;12.078;2023-07-29T11:39:53;97197.81;;;22.71;78.21
26083;BME280;13848;49.018;12.078;2023-07-29T11:42:19;97198.06;;;22.61;78.08
26083;BME280;13848;49.018;12.078;2023-07-29T11:44:45;97205.25;;;22.70;77.91
26083;BME280;13848;49.018;12.078;2023-07-29T11:47:12;97202.75;;;22.82;77.13
26083;BME280;13848;49.018;12.078;2023-07-29T11:49:39;97199.31;;;23.22;79.74
26083;BME280;13848;49.018;12.078;2023-07-29T11:52:08;97195.69;;;23.13;74.91
26083;BME280;13848;49.018;12.078;2023-07-29T11:54:34;97201.91;;;22.96;76.62
26083;BME280;13848;49.018;12.078;2023-07-29T11:57:00;97204.47;;;22.92;75.46
26083;BME280;13848;49.018;12.078;2023-07-29T11:59:27;97199.06;;;22.65;70.28
26083;BME280;13848;49.018;12.078;2023-07-29T12:01:53;97193.13;;;22.49;72.13
26083;BME280;13848;49.018;12.078;2023-07-29T12:04:19;97193.56;;;22.42;73.50
26083;BME280;13848;49.018;12.078;2023-07-29T12:06:46;97183.50;;;22.60;74.10
26083;BME280;13848;49.018;12.078;2023-07-29T12:09:13;97175.84;;;22.71;74.02
26083;BME280;13848;49.018;12.078;2023-07-29T12:11:40;97174.56;;;22.54;74.52
26083;BME280;13848;49.018;12.078;2023-07-29T12:14:07;97168.78;;;22.56;72.88
26083;BME280;13848;49.018;12.078;2023-07-29T12:16:40;97169.75;;;22.38;71.36
26083;BME280;13848;49.018;12.078;2023-07-29T12:19:06;97171.34;;;22.52;73.50
26083;BME280;13848;49.018;12.078;2023-07-29T12:21:32;97173.31;;;22.61;73.74
26083;BME280;13848;49.018;12.078;2023-07-29T12:23:58;97173.72;;;22.45;71.41
26083;BME280;13848;49.018;12.078;2023-07-29T12:26:28;97173.97;;;22.57;72.97
26083;BME280;13848;49.018;12.078;2023-07-29T12:28:54;97172.19;;;22.84;72.17
26083;BME280;13848;49.018;12.078;2023-07-29T12:31:20;97171.16;;;22.94;71.66
26083;BME280;13848;49.018;12.078;2023-07-29T12:33:46;97174.25;;;22.92;71.67
26083;BME280;13848;49.018;12.078;2023-07-29T12:36:12;97164.75;;;23.07;69.98
26083;BME280;13848;49.018;12.078;2023-07-29T12:38:38;97173.34;;;23.05;70.63
26083;BME280;13848;49.018;12.078;2023-07-29T12:41:04;97172.03;;;23.34;70.76
26083;BME280;13848;49.018;12.078;2023-07-29T12:43:31;97164.72;;;23.29;69.63
26083;BME280;13848;49.018;12.078;2023-07-29T12:45:57;97165.03;;;23.28;70.16
26083;BME280;13848;49.018;12.078;2023-07-29T12:48:23;97154.72;;;23.33;70.30
26083;BME280;13848;49.018;12.078;2023-07-29T12:50:49;97148.53;;;23.28;69.41